sensor_id;sensor_type;location;lat;lon;timestamp;pressure;altitude;pressure_sealevel;temperature;humidity
10482;BME280;5288;42.334;23.876;2023-08-06T00:01:00;55857.75;;;-140.56;54.81
10482;BME280;5288;42.334;23.876;2023-08-06T00:03:27;55834.06;;;-140.56;52.62
10482;BME280;5288;42.334;23.876;2023-08-06T00:05:55;55843.94;;;-140.56;53.87
10482;BME280;5288;42.334;23.876;2023-08-06T00:08:22;55879.50;;;-140.56;54.50
10482;BME280;5288;42.334;23.876;2023-08-06T00:10:49;55845.91;;;-140.56;54.05
10482;BME280;5288;42.334;23.876;2023-08-06T00:13:16;55865.66;;;-140.56;55.94
10482;BME280;5288;42.334;23.876;2023-08-06T00:15:43;55853.81;;;-140.56;54.14
10482;BME280;5288;42.334;23.876;2023-08-06T00:18:10;55836.03;;;-140.56;56.24
10482;BME280;5288;42.334;23.876;2023-08-06T00:20:39;55810.34;;;-140.56;55.69
10482;BME280;5288;42.334;23.876;2023-08-06T00:23:08;55839.97;;;-140.56;53.04
10482;BME280;5288;42.334;23.876;2023-08-06T00:25:35;55820.22;;;-140.56;52.76
10482;BME280;5288;42.334;23.876;2023-08-06T00:28:03;55851.84;;;-140.56;53.80
10482;BME280;5288;42.334;23.876;2023-08-06T00:30:31;55849.84;;;-140.56;53.48
10482;BME280;5288;42.334;23.876;2023-08-06T00:32:58;55879.50;;;-140.56;55.59
10482;BME280;5288;42.334;23.876;2023-08-06T00:35:25;55871.59;;;-140.56;53.74
10482;BME280;5288;42.334;23.876;2023-08-06T00:37:52;55875.53;;;-140.56;56.00
10482;BME280;5288;42.334;23.876;2023-08-06T00:40:21;55845.91;;;-140.56;55.92
10482;BME280;5288;42.334;23.876;2023-08-06T00:42:49;55873.56;;;-140.56;56.43
10482;BME280;5288;42.334;23.876;2023-08-06T00:45:16;55871.59;;;-140.56;55.31
10482;BME280;5288;42.334;23.876;2023-08-06T00:47:43;55877.53;;;-140.56;54.07
10482;BME280;5288;42.334;23.876;2023-08-06T00:50:11;55857.75;;;-140.56;55.33
10482;BME280;5288;42.334;23.876;2023-08-06T00:52:38;55883.44;;;-140.56;56.09
10482;BME280;5288;42.334;23.876;2023-08-06T00:55:06;55871.59;;;-140.56;57.22
10482;BME280;5288;42.334;23.876;2023-08-06T00:57:35;55875.53;;;-140.56;60.57
10482;BME280;5288;42.334;23.876;2023-08-06T01:00:03;55873.56;;;-140.56;57.15
10482;BME280;5288;42.334;23.876;2023-08-06T01:02:30;55857.75;;;-140.56;58.29
10482;BME280;5288;42.334;23.876;2023-08-06T01:04:57;55851.84;;;-140.56;57.34
10482;BME280;5288;42.334;23.876;2023-08-06T01:07:41;55859.75;;;-140.56;59.04
10482;BME280;5288;42.334;23.876;2023-08-06T01:10:22;55865.66;;;-140.56;60.75
10482;BME280;5288;42.334;23.876;2023-08-06T01:13:00;55917.03;;;-140.56;61.77
10482;BME280;5288;42.334;23.876;2023-08-06T01:15:35;55893.34;;;-140.56;66.54
10482;BME280;5288;42.334;23.876;2023-08-06T01:18:04;55905.19;;;-140.56;67.55
10482;BME280;5288;42.334;23.876;2023-08-06T01:20:33;55917.03;;;-140.56;67.93
10482;BME280;5288;42.334;23.876;2023-08-06T01:23:00;55899.25;;;-140.56;67.49
10482;BME280;5288;42.334;23.876;2023-08-06T01:25:32;55895.31;;;-140.56;67.50
10482;BME280;5288;42.334;23.876;2023-08-06T01:28:03;55909.13;;;-140.56;67.61
10482;BME280;5288;42.334;23.876;2023-08-06T01:30:33;55887.41;;;-140.56;67.23
10482;BME280;5288;42.334;23.876;2023-08-06T01:33:04;55901.22;;;-140.56;67.74
10482;BME280;5288;42.334;23.876;2023-08-06T01:35:33;55921.00;;;-140.56;69.83
10482;BME280;5288;42.334;23.876;2023-08-06T01:38:02;55881.47;;;-140.56;69.56
10482;BME280;5288;42.334;23.876;2023-08-06T01:40:29;55907.16;;;-140.56;69.74
10482;BME280;5288;42.334;23.876;2023-08-06T01:42:57;55901.22;;;-140.56;70.06
10482;BME280;5288;42.334;23.876;2023-08-06T01:45:24;55905.19;;;-140.56;72.18
10482;BME280;5288;42.334;23.876;2023-08-06T01:47:51;55899.25;;;-140.56;72.11
10482;BME280;5288;42.334;23.876;2023-08-06T01:53:05;55901.22;;;-140.56;68.88
10482;BME280;5288;42.334;23.876;2023-08-06T01:55:32;55911.13;;;-140.56;71.12
10482;BME280;5288;42.334;23.876;2023-08-06T01:57:59;55940.75;;;-140.56;70.01
10482;BME280;5288;42.334;23.876;2023-08-06T02:00:26;55891.34;;;-140.56;71.60
10482;BME280;5288;42.334;23.876;2023-08-06T02:02:53;55930.88;;;-140.56;71.21
10482;BME280;5288;42.334;23.876;2023-08-06T02:05:20;55899.25;;;-140.56;70.36
10482;BME280;5288;42.334;23.876;2023-08-06T02:07:47;55885.44;;;-140.56;71.52
10482;BME280;5288;42.334;23.876;2023-08-06T02:10:16;55891.34;;;-140.56;73.65
10482;BME280;5288;42.334;23.876;2023-08-06T02:12:43;55942.72;;;-140.56;71.41
10482;BME280;5288;42.334;23.876;2023-08-06T02:15:10;55895.31;;;-140.56;69.70
10482;BME280;5288;42.334;23.876;2023-08-06T02:17:37;55913.09;;;-140.56;69.43
10482;BME280;5288;42.334;23.876;2023-08-06T02:20:05;55895.31;;;-140.56;71.30
10482;BME280;5288;42.334;23.876;2023-08-06T02:22:32;55924.94;;;-140.56;70.05
10482;BME280;5288;42.334;23.876;2023-08-06T02:24:59;55875.53;;;-140.56;73.83
10482;BME280;5288;42.334;23.876;2023-08-06T02:27:27;55907.16;;;-140.56;72.83
10482;BME280;5288;42.334;23.876;2023-08-06T02:29:54;55903.22;;;-140.56;68.93
10482;BME280;5288;42.334;23.876;2023-08-06T02:32:21;55901.22;;;-140.56;70.61
10482;BME280;5288;42.334;23.876;2023-08-06T02:34:48;55913.09;;;-140.56;70.23
10482;BME280;5288;42.334;23.876;2023-08-06T02:37:15;55903.22;;;-140.56;69.78
10482;BME280;5288;42.334;23.876;2023-08-06T02:39:42;55875.53;;;-140.56;71.47
10482;BME280;5288;42.334;23.876;2023-08-06T02:42:09;55905.19;;;-140.56;69.64
10482;BME280;5288;42.334;23.876;2023-08-06T02:44:38;55919.03;;;-140.56;71.98
10482;BME280;5288;42.334;23.876;2023-08-06T02:47:05;55919.03;;;-140.56;69.54
10482;BME280;5288;42.334;23.876;2023-08-06T02:49:32;55917.03;;;-140.56;69.37
10482;BME280;5288;42.334;23.876;2023-08-06T02:51:59;55891.34;;;-140.56;69.41
10482;BME280;5288;42.334;23.876;2023-08-06T02:54:26;55879.50;;;-140.56;72.11
10482;BME280;5288;42.334;23.876;2023-08-06T02:56:53;55861.72;;;-140.56;74.78
10482;BME280;5288;42.334;23.876;2023-08-06T02:59:20;55873.56;;;-140.56;71.89
10482;BME280;5288;42.334;23.876;2023-08-06T03:01:49;55891.34;;;-140.56;68.46
10482;BME280;5288;42.334;23.876;2023-08-06T03:04:15;55885.44;;;-140.56;67.00
10482;BME280;5288;42.334;23.876;2023-08-06T03:06:43;55901.22;;;-140.56;71.38
10482;BME280;5288;42.334;23.876;2023-08-06T03:09:10;55911.13;;;-140.56;69.50
10482;BME280;5288;42.334;23.876;2023-08-06T03:11:37;55899.25;;;-140.56;69.66
10482;BME280;5288;42.334;23.876;2023-08-06T03:14:04;55911.13;;;-140.56;70.70
10482;BME280;5288;42.334;23.876;2023-08-06T03:16:31;55893.34;;;-140.56;71.32
10482;BME280;5288;42.334;23.876;2023-08-06T03:19:00;55926.94;;;-140.56;71.56
10482;BME280;5288;42.334;23.876;2023-08-06T03:21:27;55909.13;;;-140.56;69.11
10482;BME280;5288;42.334;23.876;2023-08-06T03:23:54;55899.25;;;-140.56;69.86
10482;BME280;5288;42.334;23.876;2023-08-06T03:26:21;55889.38;;;-140.56;69.61
10482;BME280;5288;42.334;23.876;2023-08-06T03:28:48;55903.22;;;-140.56;70.06
10482;BME280;5288;42.334;23.876;2023-08-06T03:31:15;55921.00;;;-140.56;71.16
10482;BME280;5288;42.334;23.876;2023-08-06T03:33:42;55895.31;;;-140.56;71.90
10482;BME280;5288;42.334;23.876;2023-08-06T03:36:10;55891.34;;;-140.56;69.55
10482;BME280;5288;42.334;23.876;2023-08-06T03:38:37;55891.34;;;-140.56;68.33
10482;BME280;5288;42.334;23.876;2023-08-06T03:41:04;55887.41;;;-140.56;71.48
10482;BME280;5288;42.334;23.876;2023-08-06T03:43:31;55897.28;;;-140.56;70.50
10482;BME280;5288;42.334;23.876;2023-08-06T03:45:58;55911.13;;;-140.56;67.98
10482;BME280;5288;42.334;23.876;2023-08-06T03:48:25;55897.28;;;-140.56;69.30
10482;BME280;5288;42.334;23.876;2023-08-06T03:50:52;55871.59;;;-140.56;72.04
10482;BME280;5288;42.334;23.876;2023-08-06T03:53:20;55913.09;;;-140.56;73.95
10482;BME280;5288;42.334;23.876;2023-08-06T03:55:48;55907.16;;;-140.56;71.38
10482;BME280;5288;42.334;23.876;2023-08-06T03:58:15;55899.25;;;-140.56;70.33
10482;BME280;5288;42.334;23.876;2023-08-06T04:00:42;55921.00;;;-140.56;71.63
10482;BME280;5288;42.334;23.876;2023-08-06T04:03:09;55922.97;;;-140.56;71.60
10482;BME280;5288;42.334;23.876;2023-08-06T04:05:36;55926.94;;;-140.56;72.28
10482;BME280;5288;42.334;23.876;2023-08-06T04:08:03;55915.06;;;-140.56;71.44
10482;BME280;5288;42.334;23.876;2023-08-06T04:10:31;55909.13;;;-140.56;70.41
10482;BME280;5288;42.334;23.876;2023-08-06T04:12:58;55885.44;;;-140.56;72.45
10482;BME280;5288;42.334;23.876;2023-08-06T04:15:25;55915.06;;;-140.56;71.91
10482;BME280;5288;42.334;23.876;2023-08-06T04:17:52;55926.94;;;-140.56;71.38
10482;BME280;5288;42.334;23.876;2023-08-06T04:20:19;55911.13;;;-140.56;72.75
10482;BME280;5288;42.334;23.876;2023-08-06T04:22:46;55948.66;;;-140.56;71.86
10482;BME280;5288;42.334;23.876;2023-08-06T04:25:13;55911.13;;;-140.56;72.82
10482;BME280;5288;42.334;23.876;2023-08-06T04:27:43;55952.63;;;-140.56;73.94
10482;BME280;5288;42.334;23.876;2023-08-06T04:30:10;55938.78;;;-140.56;74.66
10482;BME280;5288;42.334;23.876;2023-08-06T04:32:38;55903.22;;;-140.56;75.07
10482;BME280;5288;42.334;23.876;2023-08-06T04:35:06;55940.75;;;-140.56;73.28
10482;BME280;5288;42.334;23.876;2023-08-06T04:37:33;55936.81;;;-140.56;73.80
10482;BME280;5288;42.334;23.876;2023-08-06T04:40:00;55917.03;;;-140.56;74.84
10482;BME280;5288;42.334;23.876;2023-08-06T04:42:27;55921.00;;;-140.56;73.66
10482;BME280;5288;42.334;23.876;2023-08-06T04:44:55;55932.84;;;-140.56;74.57
10482;BME280;5288;42.334;23.876;2023-08-06T04:47:22;55897.28;;;-140.56;75.11
10482;BME280;5288;42.334;23.876;2023-08-06T04:49:51;55913.09;;;-140.56;75.22
10482;BME280;5288;42.334;23.876;2023-08-06T04:52:18;55921.00;;;-140.56;74.30
10482;BME280;5288;42.334;23.876;2023-08-06T04:54:45;55907.16;;;-140.56;75.67
10482;BME280;5288;42.334;23.876;2023-08-06T04:57:12;55928.91;;;-140.56;76.74
10482;BME280;5288;42.334;23.876;2023-08-06T04:59:39;55932.84;;;-140.56;79.17
10482;BME280;5288;42.334;23.876;2023-08-06T05:02:07;55948.66;;;-140.56;78.49
10482;BME280;5288;42.334;23.876;2023-08-06T05:04:34;55928.91;;;-140.56;78.53
10482;BME280;5288;42.334;23.876;2023-08-06T05:07:01;55938.78;;;-140.56;79.54
10482;BME280;5288;42.334;23.876;2023-08-06T05:09:28;55934.81;;;-140.56;77.96
10482;BME280;5288;42.334;23.876;2023-08-06T05:11:55;55915.06;;;-140.56;77.41
10482;BME280;5288;42.334;23.876;2023-08-06T05:14:22;55954.59;;;-140.56;78.03
10482;BME280;5288;42.334;23.876;2023-08-06T05:16:49;55938.78;;;-140.56;76.77
10482;BME280;5288;42.334;23.876;2023-08-06T05:19:18;55948.66;;;-140.56;77.40
10482;BME280;5288;42.334;23.876;2023-08-06T05:21:45;55950.63;;;-140.56;76.87
10482;BME280;5288;42.334;23.876;2023-08-06T05:24:12;55909.13;;;-140.56;79.04
10482;BME280;5288;42.334;23.876;2023-08-06T05:26:38;55915.06;;;-140.56;79.29
10482;BME280;5288;42.334;23.876;2023-08-06T05:29:05;55938.78;;;-140.56;77.23
10482;BME280;5288;42.334;23.876;2023-08-06T05:31:32;55921.00;;;-140.56;77.33
10482;BME280;5288;42.334;23.876;2023-08-06T05:33:59;55966.44;;;-140.56;79.44
10482;BME280;5288;42.334;23.876;2023-08-06T05:36:28;55962.50;;;-140.56;78.28
10482;BME280;5288;42.334;23.876;2023-08-06T05:38:55;55915.06;;;-140.56;78.62
10482;BME280;5288;42.334;23.876;2023-08-06T05:41:22;55891.34;;;-140.56;78.15
10482;BME280;5288;42.334;23.876;2023-08-06T05:43:49;55928.91;;;-140.56;77.43
10482;BME280;5288;42.334;23.876;2023-08-06T05:46:16;55968.41;;;-140.56;80.98
10482;BME280;5288;42.334;23.876;2023-08-06T05:48:43;55966.44;;;-140.56;81.22
10482;BME280;5288;42.334;23.876;2023-08-06T05:51:10;55921.00;;;-140.56;79.34
10482;BME280;5288;42.334;23.876;2023-08-06T05:53:40;55942.72;;;-140.56;80.21
10482;BME280;5288;42.334;23.876;2023-08-06T05:56:07;55958.53;;;-140.56;80.03
10482;BME280;5288;42.334;23.876;2023-08-06T05:58:34;55930.88;;;-140.56;80.79
10482;BME280;5288;42.334;23.876;2023-08-06T06:01:01;55921.00;;;-140.56;79.68
10482;BME280;5288;42.334;23.876;2023-08-06T06:03:28;55956.56;;;-140.56;78.11
10482;BME280;5288;42.334;23.876;2023-08-06T06:05:55;55934.81;;;-140.56;78.14
10482;BME280;5288;42.334;23.876;2023-08-06T06:08:22;55932.84;;;-140.56;76.37
10482;BME280;5288;42.334;23.876;2023-08-06T06:10:50;55942.72;;;-140.56;76.46
10482;BME280;5288;42.334;23.876;2023-08-06T06:13:17;55948.66;;;-140.56;76.91
10482;BME280;5288;42.334;23.876;2023-08-06T06:15:46;55911.13;;;-140.56;76.33
10482;BME280;5288;42.334;23.876;2023-08-06T06:18:13;55909.13;;;-140.56;75.72
10482;BME280;5288;42.334;23.876;2023-08-06T06:20:40;55893.34;;;-140.56;75.13
10482;BME280;5288;42.334;23.876;2023-08-06T06:23:07;55915.06;;;-140.56;74.77
10482;BME280;5288;42.334;23.876;2023-08-06T06:25:34;55895.31;;;-140.56;74.94
10482;BME280;5288;42.334;23.876;2023-08-06T06:28:03;55926.94;;;-140.56;73.52
10482;BME280;5288;42.334;23.876;2023-08-06T06:30:30;55909.13;;;-140.56;72.30
10482;BME280;5288;42.334;23.876;2023-08-06T06:32:57;55919.03;;;-140.56;70.52
10482;BME280;5288;42.334;23.876;2023-08-06T06:35:24;55889.38;;;-140.56;70.57
10482;BME280;5288;42.334;23.876;2023-08-06T06:37:51;55881.47;;;-140.56;68.83
10482;BME280;5288;42.334;23.876;2023-08-06T06:40:18;55881.47;;;-140.56;67.26
10482;BME280;5288;42.334;23.876;2023-08-06T06:42:45;55926.94;;;-140.56;66.98
10482;BME280;5288;42.334;23.876;2023-08-06T06:45:13;55863.69;;;-140.56;67.28
10482;BME280;5288;42.334;23.876;2023-08-06T06:47:41;55871.59;;;-140.56;67.11
10482;BME280;5288;42.334;23.876;2023-08-06T06:50:08;55897.28;;;-140.56;68.35
10482;BME280;5288;42.334;23.876;2023-08-06T06:52:35;55915.06;;;-140.56;67.48
10482;BME280;5288;42.334;23.876;2023-08-06T06:55:03;55875.53;;;-140.56;67.95
10482;BME280;5288;42.334;23.876;2023-08-06T06:57:30;55881.47;;;-140.56;66.61
10482;BME280;5288;42.334;23.876;2023-08-06T06:59:57;55889.38;;;-140.56;68.41
10482;BME280;5288;42.334;23.876;2023-08-06T07:02:25;55893.34;;;-140.56;66.98
10482;BME280;5288;42.334;23.876;2023-08-06T07:04:52;55903.22;;;-140.56;69.37
10482;BME280;5288;42.334;23.876;2023-08-06T07:07:19;55887.41;;;-140.56;67.65
10482;BME280;5288;42.334;23.876;2023-08-06T07:09:46;55885.44;;;-140.56;66.76
10482;BME280;5288;42.334;23.876;2023-08-06T07:12:13;55863.69;;;-140.56;66.52
10482;BME280;5288;42.334;23.876;2023-08-06T07:14:40;55873.56;;;-140.56;66.37
10482;BME280;5288;42.334;23.876;2023-08-06T07:17:07;55883.44;;;-140.56;68.17
10482;BME280;5288;42.334;23.876;2023-08-06T07:19:35;55891.34;;;-140.56;67.76
10482;BME280;5288;42.334;23.876;2023-08-06T07:22:02;55875.53;;;-140.56;67.53
10482;BME280;5288;42.334;23.876;2023-08-06T07:24:30;55901.22;;;-140.56;67.82
10482;BME280;5288;42.334;23.876;2023-08-06T07:26:56;55867.63;;;-140.56;67.96
10482;BME280;5288;42.334;23.876;2023-08-06T07:29:23;55875.53;;;-140.56;68.49
10482;BME280;5288;42.334;23.876;2023-08-06T07:31:50;55893.34;;;-140.56;66.89
10482;BME280;5288;42.334;23.876;2023-08-06T07:34:17;55857.75;;;-140.56;67.20
10482;BME280;5288;42.334;23.876;2023-08-06T07:36:46;55863.69;;;-140.56;64.63
10482;BME280;5288;42.334;23.876;2023-08-06T07:39:13;55875.53;;;-140.56;65.75
10482;BME280;5288;42.334;23.876;2023-08-06T07:41:42;55887.41;;;-140.56;64.31
10482;BME280;5288;42.334;23.876;2023-08-06T07:44:11;55877.53;;;-140.56;64.69
10482;BME280;5288;42.334;23.876;2023-08-06T07:46:38;55861.72;;;-140.56;63.14
10482;BME280;5288;42.334;23.876;2023-08-06T07:49:11;55853.81;;;-140.56;63.27
10482;BME280;5288;42.334;23.876;2023-08-06T07:52:03;55863.69;;;-140.56;64.83
10482;BME280;5288;42.334;23.876;2023-08-06T07:54:44;55832.06;;;-140.56;61.64
10482;BME280;5288;42.334;23.876;2023-08-06T07:57:22;55853.81;;;-140.56;61.34
10482;BME280;5288;42.334;23.876;2023-08-06T08:00:19;55838.00;;;-140.56;61.26
10482;BME280;5288;42.334;23.876;2023-08-06T08:02:59;55859.75;;;-140.56;60.36
10482;BME280;5288;42.334;23.876;2023-08-06T08:05:39;55851.84;;;-140.56;61.09
10482;BME280;5288;42.334;23.876;2023-08-06T08:08:21;55839.97;;;-140.56;62.55
10482;BME280;5288;42.334;23.876;2023-08-06T08:11:08;55867.63;;;-140.56;62.79
10482;BME280;5288;42.334;23.876;2023-08-06T08:13:58;55838.00;;;-140.56;63.34
10482;BME280;5288;42.334;23.876;2023-08-06T08:16:41;55887.41;;;-140.56;59.92
10482;BME280;5288;42.334;23.876;2023-08-06T08:19:27;55873.56;;;-140.56;61.82
10482;BME280;5288;42.334;23.876;2023-08-06T08:22:11;55869.63;;;-140.56;59.95
10482;BME280;5288;42.334;23.876;2023-08-06T08:24:57;55851.84;;;-140.56;61.16
10482;BME280;5288;42.334;23.876;2023-08-06T08:27:42;55893.34;;;-140.56;61.11
10482;BME280;5288;42.334;23.876;2023-08-06T08:30:22;55867.63;;;-140.56;62.10
10482;BME280;5288;42.334;23.876;2023-08-06T08:32:54;55865.66;;;-140.56;61.95
10482;BME280;5288;42.334;23.876;2023-08-06T08:35:21;55828.13;;;-140.56;60.74
10482;BME280;5288;42.334;23.876;2023-08-06T08:37:48;55816.25;;;-140.56;56.21
10482;BME280;5288;42.334;23.876;2023-08-06T08:40:17;55822.19;;;-140.56;56.25
10482;BME280;5288;42.334;23.876;2023-08-06T08:42:44;55798.47;;;-140.56;54.60
10482;BME280;5288;42.334;23.876;2023-08-06T08:45:13;55812.31;;;-140.56;52.49
10482;BME280;5288;42.334;23.876;2023-08-06T08:47:40;55778.72;;;-140.56;52.51
10482;BME280;5288;42.334;23.876;2023-08-06T08:50:09;55806.38;;;-140.56;53.15
10482;BME280;5288;42.334;23.876;2023-08-06T08:52:38;55770.81;;;-140.56;52.27
10482;BME280;5288;42.334;23.876;2023-08-06T08:55:07;55794.53;;;-140.56;51.92
10482;BME280;5288;42.334;23.876;2023-08-06T08:57:36;55782.66;;;-140.56;51.31
10482;BME280;5288;42.334;23.876;2023-08-06T09:00:03;55743.16;;;-140.56;51.09
10482;BME280;5288;42.334;23.876;2023-08-06T09:02:32;55780.69;;;-140.56;50.48
10482;BME280;5288;42.334;23.876;2023-08-06T09:05:00;55739.19;;;-140.56;49.23
10482;BME280;5288;42.334;23.876;2023-08-06T09:07:32;55753.03;;;-140.56;45.77
10482;BME280;5288;42.334;23.876;2023-08-06T09:10:02;55745.13;;;-140.56;44.13
10482;BME280;5288;42.334;23.876;2023-08-06T09:12:30;55774.75;;;-140.56;46.09
10482;BME280;5288;42.334;23.876;2023-08-06T09:14:59;55733.28;;;-140.56;48.01
10482;BME280;5288;42.334;23.876;2023-08-06T09:17:28;55745.13;;;-140.56;48.89
10482;BME280;5288;42.334;23.876;2023-08-06T09:19:55;55739.19;;;-140.56;44.62
10482;BME280;5288;42.334;23.876;2023-08-06T09:22:23;55749.06;;;-140.56;42.79
10482;BME280;5288;42.334;23.876;2023-08-06T09:24:50;55727.34;;;-140.56;43.19
10482;BME280;5288;42.334;23.876;2023-08-06T09:27:17;55758.97;;;-140.56;41.93
10482;BME280;5288;42.334;23.876;2023-08-06T09:29:45;55705.59;;;-140.56;41.79
10482;BME280;5288;42.334;23.876;2023-08-06T09:32:13;55729.31;;;-140.56;41.50
10482;BME280;5288;42.334;23.876;2023-08-06T09:34:41;55741.19;;;-140.56;41.04
10482;BME280;5288;42.334;23.876;2023-08-06T09:37:09;55741.19;;;-140.56;42.73
10482;BME280;5288;42.334;23.876;2023-08-06T09:39:38;55747.09;;;-140.56;40.88
10482;BME280;5288;42.334;23.876;2023-08-06T09:42:06;55721.41;;;-140.56;40.79
10482;BME280;5288;42.334;23.876;2023-08-06T09:44:33;55715.50;;;-140.56;40.06
10482;BME280;5288;42.334;23.876;2023-08-06T09:47:02;55717.47;;;-140.56;39.43
10482;BME280;5288;42.334;23.876;2023-08-06T09:49:41;55721.41;;;-140.56;38.74
10482;BME280;5288;42.334;23.876;2023-08-06T09:52:11;55711.53;;;-140.56;39.49
10482;BME280;5288;42.334;23.876;2023-08-06T09:54:39;55703.63;;;-140.56;38.54
10482;BME280;5288;42.334;23.876;2023-08-06T09:57:06;55713.50;;;-140.56;38.34
10482;BME280;5288;42.334;23.876;2023-08-06T09:59:34;55685.84;;;-140.56;36.99
10482;BME280;5288;42.334;23.876;2023-08-06T10:02:02;55707.59;;;-140.56;38.11
10482;BME280;5288;42.334;23.876;2023-08-06T10:04:35;55705.59;;;-140.56;37.84
10482;BME280;5288;42.334;23.876;2023-08-06T10:07:02;55687.81;;;-140.56;38.20
10482;BME280;5288;42.334;23.876;2023-08-06T10:09:29;55719.44;;;-140.56;36.91
10482;BME280;5288;42.334;23.876;2023-08-06T10:11:58;55683.88;;;-140.56;37.43
10482;BME280;5288;42.334;23.876;2023-08-06T10:14:30;55697.69;;;-140.56;37.51
10482;BME280;5288;42.334;23.876;2023-08-06T10:16:58;55715.50;;;-140.56;36.99
10482;BME280;5288;42.334;23.876;2023-08-06T10:19:26;55666.09;;;-140.56;38.72
10482;BME280;5288;42.334;23.876;2023-08-06T10:22:11;55689.81;;;-140.56;37.62
10482;BME280;5288;42.334;23.876;2023-08-06T10:24:49;55701.66;;;-140.56;38.04
10482;BME280;5288;42.334;23.876;2023-08-06T10:27:29;55683.88;;;-140.56;37.61
10482;BME280;5288;42.334;23.876;2023-08-06T10:30:21;55727.34;;;-140.56;38.02
10482;BME280;5288;42.334;23.876;2023-08-06T10:32:48;55717.47;;;-140.56;37.04
10482;BME280;5288;42.334;23.876;2023-08-06T10:35:29;55687.81;;;-140.56;36.02
10482;BME280;5288;42.334;23.876;2023-08-06T10:38:02;55654.22;;;-140.56;35.82
10482;BME280;5288;42.334;23.876;2023-08-06T10:40:30;55675.97;;;-140.56;35.67
10482;BME280;5288;42.334;23.876;2023-08-06T10:42:59;55670.03;;;-140.56;35.68
10482;BME280;5288;42.334;23.876;2023-08-06T10:45:26;55703.63;;;-140.56;37.20
10482;BME280;5288;42.334;23.876;2023-08-06T10:47:56;55687.81;;;-140.56;37.20
10482;BME280;5288;42.334;23.876;2023-08-06T10:50:23;55689.81;;;-140.56;37.12
10482;BME280;5288;42.334;23.876;2023-08-06T10:52:50;55725.38;;;-140.56;36.77
10482;BME280;5288;42.334;23.876;2023-08-06T10:55:26;55701.66;;;-140.56;35.45
10482;BME280;5288;42.334;23.876;2023-08-06T10:57:55;55699.69;;;-140.56;36.49
10482;BME280;5288;42.334;23.876;2023-08-06T11:00:23;55705.59;;;-140.56;36.41
10482;BME280;5288;42.334;23.876;2023-08-06T11:02:53;55685.84;;;-140.56;37.29
10482;BME280;5288;42.334;23.876;2023-08-06T11:05:20;55693.75;;;-140.56;35.92
10482;BME280;5288;42.334;23.876;2023-08-06T11:07:48;55731.28;;;-140.56;36.26
10482;BME280;5288;42.334;23.876;2023-08-06T11:10:16;55717.47;;;-140.56;36.22
10482;BME280;5288;42.334;23.876;2023-08-06T11:12:45;55705.59;;;-140.56;37.40
10482;BME280;5288;42.334;23.876;2023-08-06T11:15:12;55727.34;;;-140.56;37.62
10482;BME280;5288;42.334;23.876;2023-08-06T11:17:40;55725.38;;;-140.56;37.81
10482;BME280;5288;42.334;23.876;2023-08-06T11:20:09;55703.63;;;-140.56;37.63
10482;BME280;5288;42.334;23.876;2023-08-06T11:22:37;55697.69;;;-140.56;37.54
10482;BME280;5288;42.334;23.876;2023-08-06T11:25:06;55672.00;;;-140.56;37.65
10482;BME280;5288;42.334;23.876;2023-08-06T11:27:33;55662.13;;;-140.56;38.46
10482;BME280;5288;42.334;23.876;2023-08-06T11:30:02;55681.91;;;-140.56;38.91
10482;BME280;5288;42.334;23.876;2023-08-06T11:32:29;55717.47;;;-140.56;39.70
10482;BME280;5288;42.334;23.876;2023-08-06T11:34:56;55689.81;;;-140.56;38.79
10482;BME280;5288;42.334;23.876;2023-08-06T11:37:23;55697.69;;;-140.56;37.79
10482;BME280;5288;42.334;23.876;2023-08-06T11:39:51;55668.06;;;-140.56;38.10
10482;BME280;5288;42.334;23.876;2023-08-06T11:42:18;55685.84;;;-140.56;37.68
10482;BME280;5288;42.334;23.876;2023-08-06T11:44:45;55693.75;;;-140.56;38.07
10482;BME280;5288;42.334;23.876;2023-08-06T11:47:16;55683.88;;;-140.56;36.09
10482;BME280;5288;42.334;23.876;2023-08-06T11:49:45;55705.59;;;-140.56;34.60
10482;BME280;5288;42.334;23.876;2023-08-06T11:52:17;55677.94;;;-140.56;34.34
10482;BME280;5288;42.334;23.876;2023-08-06T11:54:46;55677.94;;;-140.56;34.10
10482;BME280;5288;42.334;23.876;2023-08-06T11:57:14;55664.13;;;-140.56;34.48
10482;BME280;5288;42.334;23.876;2023-08-06T11:59:42;55652.25;;;-140.56;34.58
10482;BME280;5288;42.334;23.876;2023-08-06T12:02:09;55670.03;;;-140.56;34.15
10482;BME280;5288;42.334;23.876;2023-08-06T12:04:59;55677.94;;;-140.56;35.39
10482;BME280;5288;42.334;23.876;2023-08-06T12:07:28;55670.03;;;-140.56;34.89
10482;BME280;5288;42.334;23.876;2023-08-06T12:09:55;55697.69;;;-140.56;35.00
10482;BME280;5288;42.334;23.876;2023-08-06T12:12:22;55677.94;;;-140.56;36.48
10482;BME280;5288;42.334;23.876;2023-08-06T12:14:49;55677.94;;;-140.56;36.23
10482;BME280;5288;42.334;23.876;2023-08-06T12:17:16;55670.03;;;-140.56;36.02
10482;BME280;5288;42.334;23.876;2023-08-06T12:19:44;55664.13;;;-140.56;36.47
10482;BME280;5288;42.334;23.876;2023-08-06T12:22:13;55634.47;;;-140.56;36.06
10482;BME280;5288;42.334;23.876;2023-08-06T12:24:42;55642.38;;;-140.56;35.79
10482;BME280;5288;42.334;23.876;2023-08-06T12:27:10;55640.41;;;-140.56;34.19
10482;BME280;5288;42.334;23.876;2023-08-06T12:29:39;55624.59;;;-140.56;33.62
10482;BME280;5288;42.334;23.876;2023-08-06T12:32:07;55634.47;;;-140.56;33.46
10482;BME280;5288;42.334;23.876;2023-08-06T12:34:34;55660.16;;;-140.56;33.05
10482;BME280;5288;42.334;23.876;2023-08-06T12:37:02;55642.38;;;-140.56;33.90
10482;BME280;5288;42.334;23.876;2023-08-06T12:39:31;55662.13;;;-140.56;34.33
10482;BME280;5288;42.334;23.876;2023-08-06T12:41:59;55634.47;;;-140.56;33.94
10482;BME280;5288;42.334;23.876;2023-08-06T12:44:26;55624.59;;;-140.56;34.99
10482;BME280;5288;42.334;23.876;2023-08-06T12:46:53;55664.13;;;-140.56;34.91
10482;BME280;5288;42.334;23.876;2023-08-06T12:49:21;55687.81;;;-140.56;34.38
10482;BME280;5288;42.334;23.876;2023-08-06T12:51:48;55636.44;;;-140.56;33.99